Time;durP1;ratioP1;P1;durP2;ratioP2;P2;SDS_P1;SDS_P2;PMS_P1;PMS_P2;Temp;Humidity;BMP_temperature;BMP_pressure;BME280_temperature;BME280_humidity;BME280_pressure;Samples;Min_cycle;Max_cycle;Signal;HPM_P1;HPM_P2
2021/07/25 00:00:07;;;;;;;28.27;18.35;;;20.80;74.40;;;;;;4996584;28;20054;-76
2021/07/25 00:02:34;;;;;;;30.65;18.63;;;20.80;74.50;;;;;;4978717;28;20362;-76
2021/07/25 00:05:00;;;;;;;23.75;18.20;;;20.80;74.30;;;;;;4996769;28;20043;-77
2021/07/25 00:07:26;;;;;;;27.52;17.83;;;20.80;74.20;;;;;;4996517;28;20034;-77
2021/07/25 00:09:51;;;;;;;37.90;23.45;;;20.70;74.00;;;;;;4996571;28;20026;-76
2021/07/25 00:12:17;;;;;;;35.38;21.05;;;20.70;74.10;;;;;;4996371;28;20033;-76
2021/07/25 00:14:43;;;;;;;39.03;25.75;;;20.70;74.30;;;;;;4996381;28;20072;-77
2021/07/25 00:17:09;;;;;;;34.50;25.30;;;20.70;74.40;;;;;;4996184;28;20369;-76
2021/07/25 00:19:35;;;;;;;34.35;23.55;;;20.70;74.50;;;;;;4996481;28;20342;-76
2021/07/25 00:22:02;;;;;;;29.65;22.50;;;20.70;74.40;;;;;;4996364;28;20026;-76
2021/07/25 00:24:31;;;;;;;32.55;22.15;;;20.70;74.40;;;;;;4996227;28;20123;-77
2021/07/25 00:26:59;;;;;;;35.60;20.90;;;20.70;74.50;;;;;;4978708;28;20110;-76
2021/07/25 00:29:25;;;;;;;30.83;19.73;;;20.70;74.60;;;;;;4996194;28;20019;-76
2021/07/25 00:31:51;;;;;;;33.63;20.75;;;20.60;74.60;;;;;;4996156;28;20094;-77
2021/07/25 00:34:17;;;;;;;31.73;20.42;;;20.60;74.70;;;;;;4996037;28;20081;-76
2021/07/25 00:36:42;;;;;;;29.80;20.67;;;20.60;74.70;;;;;;4996115;28;20035;-76
2021/07/25 00:39:10;;;;;;;27.20;19.20;;;20.60;74.80;;;;;;4995911;28;20045;-77
2021/07/25 00:41:37;;;;;;;29.60;19.02;;;20.60;74.90;;;;;;4995963;28;20046;-77
2021/07/25 00:44:03;;;;;;;31.58;20.30;;;20.50;75.00;;;;;;4995932;28;20032;-76
2021/07/25 00:46:29;;;;;;;30.35;20.10;;;20.50;75.10;;;;;;4995538;28;20034;-76
2021/07/25 00:48:55;;;;;;;29.10;19.45;;;20.50;75.20;;;;;;4995867;28;20027;-77
2021/07/25 00:51:22;;;;;;;29.30;20.42;;;20.50;75.30;;;;;;4995583;28;20069;-77
2021/07/25 00:53:48;;;;;;;30.48;20.67;;;20.40;75.30;;;;;;4995615;28;20023;-77
2021/07/25 00:56:15;;;;;;;28.88;20.73;;;20.40;75.50;;;;;;4995694;28;20022;-77
2021/07/25 00:58:42;;;;;;;25.10;19.88;;;20.40;75.50;;;;;;4995857;28;20022;-77
2021/07/25 01:01:10;;;;;;;29.05;20.52;;;20.40;75.50;;;;;;4995668;28;20027;-77
2021/07/25 01:03:42;;;;;;;25.58;21.17;;;20.40;75.50;;;;;;4995553;28;20101;-77
2021/07/25 01:06:10;;;;;;;30.65;22.42;;;20.40;75.40;;;;;;4995406;28;20029;-76
2021/07/25 01:08:38;;;;;;;32.88;21.30;;;20.30;75.40;;;;;;4995365;28;20054;-76
2021/07/25 01:11:06;;;;;;;36.58;25.35;;;20.30;75.50;;;;;;4994628;28;20026;-76
2021/07/25 01:13:37;;;;;;;34.78;24.63;;;20.30;75.50;;;;;;4995329;28;20018;-76
2021/07/25 01:16:04;;;;;;;39.08;25.77;;;20.30;75.60;;;;;;4995418;28;20026;-76
2021/07/25 01:18:29;;;;;;;39.50;26.38;;;20.20;75.40;;;;;;4995356;28;20031;-76
2021/07/25 01:20:55;;;;;;;32.65;24.80;;;20.30;75.40;;;;;;4995321;28;20060;-77
2021/07/25 01:23:22;;;;;;;34.53;22.88;;;20.30;75.30;;;;;;4977789;28;20456;-77
2021/07/25 01:25:52;;;;;;;34.92;24.48;;;20.20;75.30;;;;;;4995006;28;20513;-77
2021/07/25 01:28:25;;;;;;;35.65;23.25;;;20.20;75.30;;;;;;4995018;28;20464;-78
2021/07/25 01:30:55;;;;;;;33.05;23.13;;;20.20;75.50;;;;;;4995024;28;20487;-77
2021/07/25 01:33:30;;;;;;;32.85;24.48;;;20.10;75.50;;;;;;4977290;28;20022;-77
2021/07/25 01:36:00;;;;;;;32.78;21.33;;;20.10;75.50;;;;;;4995001;28;20117;-78
2021/07/25 01:38:27;;;;;;;34.65;20.80;;;20.10;75.70;;;;;;4994938;28;20480;-78
2021/07/25 01:41:02;;;;;;;35.95;20.90;;;20.10;75.90;;;;;;4994939;28;20026;-77
2021/07/25 01:43:27;;;;;;;32.15;23.00;;;20.00;76.10;;;;;;4995032;28;20033;-78
2021/07/25 01:45:53;;;;;;;28.27;21.50;;;19.90;76.10;;;;;;4994949;28;20018;-77
2021/07/25 01:48:19;;;;;;;30.08;22.00;;;19.90;76.20;;;;;;4994976;28;20161;-78
2021/07/25 01:50:44;;;;;;;31.80;21.65;;;19.80;76.40;;;;;;4994625;28;20140;-78
2021/07/25 01:53:10;;;;;;;31.45;20.42;;;19.80;76.60;;;;;;4994686;28;20568;-78
2021/07/25 01:55:36;;;;;;;34.50;21.45;;;19.80;76.70;;;;;;4994734;28;20037;-78
2021/07/25 01:58:01;;;;;;;32.13;21.45;;;19.80;76.90;;;;;;4994596;28;20027;-78
2021/07/25 02:00:27;;;;;;;30.00;21.10;;;19.80;76.90;;;;;;4994630;28;20038;-78
2021/07/25 02:02:53;;;;;;;27.08;21.23;;;19.80;76.90;;;;;;4994420;28;20110;-78
2021/07/25 02:05:18;;;;;;;31.25;21.27;;;19.80;76.90;;;;;;4994330;28;20027;-78
2021/07/25 02:07:44;;;;;;;32.83;21.48;;;19.80;76.90;;;;;;4994137;28;20033;-78
2021/07/25 02:10:10;;;;;;;33.10;21.58;;;19.70;76.90;;;;;;4993972;28;20018;-78
2021/07/25 02:12:36;;;;;;;32.35;22.25;;;19.80;77.00;;;;;;4994204;28;20022;-78
2021/07/25 02:15:02;;;;;;;30.05;20.92;;;19.80;77.10;;;;;;4994128;28;20030;-78
2021/07/25 02:17:27;;;;;;;33.17;21.48;;;19.80;77.20;;;;;;4994386;28;20439;-78
2021/07/25 02:19:53;;;;;;;31.05;22.05;;;19.80;77.40;;;;;;4976759;28;20109;-78
2021/07/25 02:22:19;;;;;;;34.83;22.45;;;19.80;77.50;;;;;;4993150;28;20416;-78
2021/07/25 02:24:44;;;;;;;32.53;21.65;;;19.80;77.40;;;;;;4994470;28;20018;-78
2021/07/25 02:27:10;;;;;;;36.55;22.25;;;19.80;77.30;;;;;;4994123;28;20042;-78
2021/07/25 02:29:36;;;;;;;31.20;21.02;;;19.80;77.30;;;;;;4994108;28;20030;-79
2021/07/25 02:32:02;;;;;;;34.70;21.38;;;19.90;77.20;;;;;;4993813;28;20042;-78
2021/07/25 02:34:28;;;;;;;36.63;23.23;;;20.00;77.20;;;;;;4994135;28;20022;-78
2021/07/25 02:36:53;;;;;;;30.48;22.30;;;20.10;77.10;;;;;;4993795;28;20032;-78
2021/07/25 02:39:19;;;;;;;31.50;21.98;;;20.30;76.80;;;;;;4993794;28;20411;-77
2021/07/25 02:41:45;;;;;;;26.35;20.45;;;20.60;76.40;;;;;;4993822;28;20034;-77
2021/07/25 02:44:10;;;;;;;30.88;21.20;;;20.90;75.70;;;;;;4993496;28;20053;-77
2021/07/25 02:46:36;;;;;;;30.45;20.50;;;21.20;74.90;;;;;;4975999;28;20096;-78
2021/07/25 02:49:02;;;;;;;28.75;19.60;;;21.60;74.00;;;;;;4976027;28;20484;-77
2021/07/25 02:51:29;;;;;;;24.30;19.02;;;22.10;73.00;;;;;;4993293;28;20126;-78
2021/07/25 02:53:54;;;;;;;24.77;19.63;;;22.50;71.90;;;;;;4993426;28;20026;-77
2021/07/25 02:56:20;;;;;;;34.15;21.08;;;23.00;70.80;;;;;;4993497;28;20026;-78
2021/07/25 02:58:46;;;;;;;25.30;20.15;;;23.50;69.70;;;;;;4993387;28;20027;-78
2021/07/25 03:01:13;;;;;;;27.27;20.48;;;24.00;68.40;;;;;;4993309;28;20026;-77
2021/07/25 03:03:39;;;;;;;26.45;20.15;;;24.60;67.20;;;;;;4975731;28;20041;-77
2021/07/25 03:06:05;;;;;;;31.98;20.70;;;25.10;65.80;;;;;;4993246;28;20026;-77
2021/07/25 03:08:31;;;;;;;27.52;19.48;;;25.60;64.40;;;;;;4993238;28;20034;-78
2021/07/25 03:10:57;;;;;;;32.40;22.05;;;26.10;63.30;;;;;;4993485;28;20031;-77
2021/07/25 03:13:22;;;;;;;27.25;20.98;;;26.60;62.10;;;;;;4993155;28;20033;-78
2021/07/25 03:15:48;;;;;;;25.35;19.60;;;27.10;60.90;;;;;;4993244;28;20034;-77
2021/07/25 03:18:14;;;;;;;24.60;18.83;;;27.60;59.80;;;;;;4993127;28;20038;-78
2021/07/25 03:20:39;;;;;;;23.10;19.90;;;28.00;58.70;;;;;;4993105;28;20476;-78
2021/07/25 03:23:05;;;;;;;25.02;21.48;;;28.50;57.70;;;;;;4992647;28;20431;-78
2021/07/25 03:25:31;;;;;;;30.83;20.50;;;29.00;56.60;;;;;;4992966;28;20034;-77
2021/07/25 03:27:56;;;;;;;29.25;20.42;;;29.50;55.60;;;;;;4975527;28;20087;-77
2021/07/25 03:30:22;;;;;;;30.63;18.92;;;30.10;54.70;;;;;;4992742;28;20077;-78
2021/07/25 03:32:48;;;;;;;24.00;19.17;;;30.60;53.70;;;;;;4992551;28;20057;-77
2021/07/25 03:35:13;;;;;;;23.17;18.50;;;31.10;52.80;;;;;;4992942;28;20026;-77
2021/07/25 03:37:42;;;;;;;22.40;18.30;;;31.50;51.90;;;;;;4992726;28;20054;-77
2021/07/25 03:40:09;;;;;;;26.70;20.20;;;32.00;51.20;;;;;;4992612;28;20084;-77
2021/07/25 03:42:35;;;;;;;26.40;18.88;;;32.50;50.20;;;;;;4992743;28;20026;-77
2021/07/25 03:45:00;;;;;;;27.88;19.65;;;32.90;49.40;;;;;;4992524;28;20113;-77
2021/07/25 03:47:26;;;;;;;25.40;18.27;;;33.30;48.70;;;;;;4992520;28;20026;-76
2021/07/25 03:49:52;;;;;;;24.20;20.02;;;33.70;48.00;;;;;;4992461;28;20491;-77
2021/07/25 03:52:18;;;;;;;24.92;18.85;;;34.10;47.40;;;;;;4992447;28;20046;-76
2021/07/25 03:54:43;;;;;;;30.35;19.77;;;34.40;46.70;;;;;;4975065;28;20057;-77
2021/07/25 03:57:10;;;;;;;28.27;21.42;;;34.70;46.10;;;;;;4992666;28;20105;-77
2021/07/25 03:59:37;;;;;;;24.80;19.60;;;35.00;45.70;;;;;;4975161;28;20185;-77
2021/07/25 04:02:04;;;;;;;23.00;19.50;;;35.30;45.20;;;;;;4975117;28;20084;-76
2021/07/25 04:04:30;;;;;;;25.23;19.15;;;35.70;44.70;;;;;;4992583;28;20108;-77
2021/07/25 04:06:56;;;;;;;23.10;19.65;;;36.00;44.20;;;;;;4992643;28;20033;-77
2021/07/25 04:09:21;;;;;;;23.40;19.52;;;36.30;43.90;;;;;;4974779;28;20026;-77
2021/07/25 04:11:55;;;;;;;24.80;19.90;;;36.60;43.50;;;;;;4992461;28;20368;-77
2021/07/25 04:14:21;;;;;;;26.60;21.08;;;36.90;42.90;;;;;;4992285;28;20156;-77
2021/07/25 04:16:48;;;;;;;22.85;18.10;;;37.20;42.60;;;;;;4992198;28;20027;-77
2021/07/25 04:19:14;;;;;;;20.13;16.83;;;37.50;42.30;;;;;;4992355;28;20508;-77
2021/07/25 04:21:40;;;;;;;25.02;18.73;;;37.80;42.00;;;;;;4992215;28;20464;-78
2021/07/25 04:24:06;;;;;;;25.45;18.05;;;38.10;42.40;;;;;;4992301;28;20034;-78
2021/07/25 04:26:32;;;;;;;24.95;18.15;;;38.40;41.40;;;;;;4992552;28;20133;-77
2021/07/25 04:28:58;;;;;;;25.42;17.65;;;38.70;41.10;;;;;;4992202;28;20029;-78
2021/07/25 04:31:24;;;;;;;22.17;16.58;;;39.20;40.80;;;;;;4991937;28;20416;-78
2021/07/25 04:33:52;;;;;;;22.40;17.73;;;39.50;40.30;;;;;;4991860;28;20034;-78
2021/07/25 04:36:26;;;;;;;20.20;17.02;;;39.80;40.00;;;;;;4992013;28;20122;-78
2021/07/25 04:38:53;;;;;;;25.35;18.17;;;40.10;39.70;;;;;;4992126;28;20029;-78
2021/07/25 04:41:23;;;;;;;24.25;17.00;;;40.30;39.50;;;;;;4991817;28;20030;-78
2021/07/25 04:43:53;;;;;;;22.70;17.00;;;40.50;39.30;;;;;;4991915;28;20026;-77
2021/07/25 04:46:28;;;;;;;22.60;17.60;;;40.70;39.20;;;;;;4977556;28;20297;-78
2021/07/25 04:49:14;;;;;;;21.25;18.08;;;41.00;39.00;;;;;;4995717;28;20023;-77
2021/07/25 04:51:42;;;;;;;18.80;15.93;;;41.30;38.80;;;;;;4995475;28;20073;-78
2021/07/25 04:54:14;;;;;;;20.85;16.58;;;41.70;38.80;;;;;;4995574;28;20074;-78
2021/07/25 04:56:56;;;;;;;27.00;17.05;;;42.20;38.40;;;;;;4995534;28;20018;-78
2021/07/25 04:59:29;;;;;;;21.42;18.20;;;42.60;37.90;;;;;;4995959;28;20026;-78
2021/07/25 05:02:03;;;;;;;20.67;17.00;;;43.20;37.80;;;;;;4995210;28;20026;-78
2021/07/25 05:04:29;;;;;;;22.73;16.95;;;43.70;37.30;;;;;;4995147;28;20499;-78
2021/07/25 05:06:55;;;;;;;22.25;17.95;;;44.00;37.00;;;;;;4977826;28;20040;-78
2021/07/25 05:09:21;;;;;;;19.55;16.85;;;44.30;37.30;;;;;;4995138;28;20022;-77
2021/07/25 05:12:14;;;;;;;20.73;16.40;;;44.50;36.50;;;;;;4995271;28;20041;-78
2021/07/25 05:14:52;;;;;;;28.95;15.88;;;44.60;36.10;;;;;;4991219;28;20053;-78
2021/07/25 05:17:28;;;;;;;17.38;15.63;;;44.90;36.10;;;;;;4994785;28;20180;-78
2021/07/25 05:20:03;;;;;;;20.88;17.83;;;45.20;35.90;;;;;;4994878;28;20026;-78
2021/07/25 05:22:57;;;;;;;22.08;15.43;;;45.50;35.60;;;;;;4994661;28;20040;-78
2021/07/25 05:25:24;;;;;;;18.90;16.33;;;45.80;35.50;;;;;;4990596;28;20511;-77
2021/07/25 05:27:53;;;;;;;17.88;14.95;;;46.20;35.30;;;;;;4994944;28;20018;-78
2021/07/25 05:30:21;;;;;;;19.35;15.77;;;46.40;35.00;;;;;;4994657;28;20036;-77
2021/07/25 05:32:47;;;;;;;19.08;15.13;;;46.70;34.80;;;;;;4994807;28;20106;-77
2021/07/25 05:35:13;;;;;;;21.08;14.68;;;46.90;34.40;;;;;;4994799;28;20358;-77
2021/07/25 05:37:39;;;;;;;20.70;16.17;;;47.10;34.10;;;;;;4994689;28;20038;-77
2021/07/25 05:40:06;;;;;;;22.60;15.32;;;47.40;34.00;;;;;;4994504;28;20022;-78
2021/07/25 05:42:32;;;;;;;14.48;12.98;;;47.50;33.80;;;;;;4994301;28;20049;-78
2021/07/25 05:44:58;;;;;;;16.50;13.48;;;47.80;33.40;;;;;;4994429;28;20038;-78
2021/07/25 05:47:24;;;;;;;16.50;13.45;;;47.80;33.10;;;;;;4994447;28;20064;-78
2021/07/25 05:49:50;;;;;;;13.10;10.63;;;48.00;33.20;;;;;;4994503;28;20049;-78
2021/07/25 05:52:15;;;;;;;13.00;11.70;;;48.10;32.50;;;;;;4994038;28;20396;-79
2021/07/25 05:54:42;;;;;;;14.80;13.20;;;48.20;32.40;;;;;;4994064;28;20413;-76
2021/07/25 05:57:10;;;;;;;17.70;12.75;;;48.30;32.70;;;;;;4976530;28;20426;-78
2021/07/25 05:59:36;;;;;;;20.52;11.98;;;48.40;32.70;;;;;;4994141;28;20054;-79
2021/07/25 06:02:03;;;;;;;15.00;12.77;;;48.30;32.90;;;;;;4994092;28;20480;-77
2021/07/25 06:04:35;;;;;;;17.70;12.50;;;48.30;32.80;;;;;;4994245;28;20050;-79
2021/07/25 06:07:01;;;;;;;13.38;12.02;;;48.20;32.80;;;;;;4994262;28;20077;-80
2021/07/25 06:09:26;;;;;;;15.98;10.70;;;48.10;32.80;;;;;;4994443;28;20023;-79
2021/07/25 06:11:52;;;;;;;13.98;11.90;;;48.20;32.60;;;;;;4994142;28;20781;-79
2021/07/25 06:14:18;;;;;;;15.60;12.73;;;48.20;32.80;;;;;;4994072;28;20464;-80
2021/07/25 06:16:44;;;;;;;16.30;13.05;;;48.20;33.20;;;;;;4993919;28;20465;-79
2021/07/25 06:19:10;;;;;;;15.93;11.82;;;48.10;33.40;;;;;;4993930;28;20455;-80
2021/07/25 06:21:36;;;;;;;12.50;11.27;;;48.10;33.30;;;;;;4993771;28;20026;-79
2021/07/25 06:24:02;;;;;;;18.30;11.38;;;48.10;33.20;;;;;;4993083;28;20037;-79
2021/07/25 06:26:30;;;;;;;20.88;12.10;;;48.10;33.10;;;;;;4992842;28;20026;-80
2021/07/25 06:28:56;;;;;;;13.57;11.05;;;48.00;33.00;;;;;;4993605;28;20019;-80
2021/07/25 06:31:22;;;;;;;13.25;10.50;;;48.00;33.00;;;;;;4993499;28;20027;-79
2021/07/25 06:33:47;;;;;;;12.07;10.90;;;48.00;32.90;;;;;;4993671;28;20048;-80
2021/07/25 06:36:14;;;;;;;16.23;11.50;;;47.90;32.50;;;;;;4993367;28;20030;-79
2021/07/25 06:38:40;;;;;;;13.93;10.60;;;47.90;32.50;;;;;;4993206;28;20030;-78
2021/07/25 06:41:06;;;;;;;13.95;10.85;;;48.10;32.10;;;;;;4993317;28;20061;-76
2021/07/25 06:43:32;;;;;;;13.15;11.00;;;47.90;31.80;;;;;;4993040;28;20511;-77
2021/07/25 06:45:58;;;;;;;18.67;12.65;;;47.80;31.90;;;;;;4992802;28;20271;-77
2021/07/25 06:48:29;;;;;;;16.08;11.30;;;47.80;31.80;;;;;;4992574;28;20038;-76
2021/07/25 06:50:57;;;;;;;14.93;11.25;;;47.80;31.80;;;;;;4992827;28;20046;-77
2021/07/25 06:53:26;;;;;;;13.73;11.77;;;47.60;31.80;;;;;;4992790;28;20106;-77
2021/07/25 06:55:53;;;;;;;13.77;11.80;;;47.40;32.00;;;;;;4993154;28;20031;-77
2021/07/25 06:58:20;;;;;;;17.95;12.63;;;47.20;32.30;;;;;;4974907;28;20038;-77
2021/07/25 07:00:46;;;;;;;16.42;12.65;;;47.10;32.60;;;;;;4992795;28;20473;-78
2021/07/25 07:03:13;;;;;;;13.85;11.35;;;46.90;32.80;;;;;;4992623;28;20033;-77
2021/07/25 07:05:38;;;;;;;18.70;12.27;;;46.90;32.50;;;;;;4992435;28;20417;-77
2021/07/25 07:08:06;;;;;;;15.32;12.63;;;46.80;32.20;;;;;;4991954;28;20041;-77
2021/07/25 07:10:38;;;;;;;14.10;11.40;;;46.80;32.00;;;;;;4992671;28;20041;-77
2021/07/25 07:13:07;;;;;;;14.57;11.85;;;46.70;31.90;;;;;;4992765;28;20023;-77
2021/07/25 07:15:33;;;;;;;16.95;12.23;;;46.50;31.90;;;;;;4975043;28;20384;-77
2021/07/25 07:18:00;;;;;;;17.65;12.57;;;46.50;31.70;;;;;;4992516;28;20022;-73
2021/07/25 07:20:26;;;;;;;16.35;12.35;;;46.30;31.60;;;;;;4992245;28;20063;-78
2021/07/25 07:22:55;;;;;;;21.40;12.93;;;46.20;31.80;;;;;;4992335;28;20022;-78
2021/07/25 07:25:22;;;;;;;21.50;13.55;;;46.00;31.80;;;;;;4992145;28;20034;-77
2021/07/25 07:27:48;;;;;;;28.08;14.10;;;45.90;32.00;;;;;;4992552;28;20121;-79
2021/07/25 07:30:15;;;;;;;17.60;13.00;;;45.80;31.90;;;;;;4992521;28;20026;-78
2021/07/25 07:32:40;;;;;;;23.70;13.18;;;45.80;32.10;;;;;;4992470;28;20105;-78
2021/07/25 07:35:10;;;;;;;25.50;15.70;;;45.60;31.60;;;;;;4992536;28;20054;-76
2021/07/25 07:37:36;;;;;;;25.33;16.15;;;45.50;31.60;;;;;;4992198;28;20034;-77
2021/07/25 07:40:03;;;;;;;21.40;15.23;;;45.10;31.70;;;;;;4992197;28;20034;-76
2021/07/25 07:42:29;;;;;;;21.85;13.50;;;44.80;31.90;;;;;;4992247;28;20342;-79
2021/07/25 07:44:56;;;;;;;18.10;12.77;;;44.40;32.30;;;;;;4991901;28;20100;-78
2021/07/25 07:47:23;;;;;;;16.10;10.40;;;44.00;32.10;;;;;;4991731;28;20026;-79
2021/07/25 07:49:50;;;;;;;19.75;9.60;;;43.10;32.00;;;;;;4991942;28;20023;-79
2021/07/25 07:52:16;;;;;;;24.70;11.20;;;42.00;32.00;;;;;;4991643;28;20053;-78
2021/07/25 07:54:42;;;;;;;18.95;10.93;;;41.00;32.60;;;;;;4991307;28;20037;-78
2021/07/25 07:57:12;;;;;;;23.90;12.82;;;40.00;33.40;;;;;;4974009;28;20026;-80
2021/07/25 07:59:38;;;;;;;29.48;15.25;;;39.20;34.30;;;;;;4991711;28;20027;-79
2021/07/25 08:02:04;;;;;;;33.10;18.85;;;38.60;35.00;;;;;;4992066;28;20050;-79
2021/07/25 08:04:29;;;;;;;33.40;18.52;;;38.10;35.50;;;;;;4991860;28;20037;-79
2021/07/25 08:06:55;;;;;;;27.70;15.80;;;37.40;36.10;;;;;;4991522;28;20032;-79
2021/07/25 08:09:21;;;;;;;28.85;16.92;;;36.80;37.00;;;;;;4991916;28;20420;-78
2021/07/25 08:11:46;;;;;;;29.25;16.35;;;36.30;37.70;;;;;;4992503;28;20038;-85
2021/07/25 08:14:13;;;;;;;27.83;18.92;;;36.00;38.40;;;;;;4992301;28;20018;-82
2021/07/25 08:16:40;;;;;;;48.60;22.50;;;35.70;38.90;;;;;;4992643;28;20113;-80
2021/07/25 08:19:06;;;;;;;46.90;28.80;;;35.50;39.10;;;;;;4992414;28;20049;-81
2021/07/25 08:21:31;;;;;;;50.38;26.73;;;35.10;39.30;;;;;;4995838;28;20054;-80
2021/07/25 08:23:57;;;;;;;41.20;25.38;;;34.90;39.50;;;;;;4996403;28;20109;-81
2021/07/25 08:26:23;;;;;;;41.13;25.10;;;34.90;40.00;;;;;;4996216;28;20026;-81
2021/07/25 08:28:48;;;;;;;39.22;24.13;;;35.10;40.20;;;;;;4996076;28;20023;-81
2021/07/25 08:31:14;;;;;;;46.67;27.15;;;35.30;40.20;;;;;;4995962;28;20038;-79
2021/07/25 08:33:40;;;;;;;42.95;25.73;;;35.60;40.10;;;;;;4995355;28;20026;-79
2021/07/25 08:36:05;;;;;;;49.05;24.13;;;35.80;39.80;;;;;;4995434;28;20030;-80
2021/07/25 08:38:31;;;;;;;27.02;11.10;;;36.00;39.70;;;;;;4995326;28;20034;-79
2021/07/25 08:41:20;;;;;;;14.65;11.93;;;36.10;39.60;;;;;;4995310;28;20029;-79
2021/07/25 08:43:46;;;;;;;16.05;12.52;;;35.90;39.40;;;;;;4966502;28;20038;-75
2021/07/25 08:46:18;;;;;;;11.85;9.48;;;35.50;39.70;;;;;;4995826;28;20061;-84
2021/07/25 08:48:52;;;;;;;13.73;9.18;;;35.20;40.00;;;;;;4978888;28;20181;-82
2021/07/25 08:51:23;;;;;;;17.40;8.88;;;34.80;40.20;;;;;;4996263;28;20045;-83
2021/07/25 08:53:59;;;;;;;10.97;9.00;;;34.30;40.60;;;;;;4996710;28;20030;-82
2021/07/25 08:56:32;;;;;;;12.23;8.60;;;33.80;40.80;;;;;;4996541;28;20018;-82
2021/07/25 08:59:05;;;;;;;12.68;9.00;;;33.40;41.10;;;;;;4995956;28;20476;-81
2021/07/25 09:01:37;;;;;;;14.27;9.15;;;33.00;41.60;;;;;;4996914;28;20034;-82
2021/07/25 09:04:03;;;;;;;11.70;8.60;;;32.70;41.80;;;;;;4996283;28;20032;-80
2021/07/25 09:06:43;;;;;;;11.80;8.95;;;32.50;42.30;;;;;;4995627;28;20030;-81
2021/07/25 09:09:09;;;;;;;13.05;9.02;;;32.40;43.20;;;;;;4995969;28;20023;-81
2021/07/25 09:11:36;;;;;;;12.15;8.00;;;32.30;43.10;;;;;;5011006;28;20491;-81
2021/07/25 09:14:05;;;;;;;11.98;8.68;;;32.30;43.30;;;;;;5004389;28;20022;-81
2021/07/25 09:16:33;;;;;;;11.60;8.27;;;32.30;43.30;;;;;;4983652;28;20098;-82
2021/07/25 09:18:59;;;;;;;13.80;8.60;;;32.50;42.90;;;;;;5002243;28;20026;-81
2021/07/25 09:21:38;;;;;;;9.50;8.57;;;32.60;42.80;;;;;;5013330;28;20095;-80
2021/07/25 09:24:19;;;;;;;9.07;8.15;;;32.70;43.10;;;;;;5026181;28;20030;-83
2021/07/25 09:26:52;;;;;;;14.63;9.35;;;32.60;42.60;;;;;;5009720;28;20030;-82
2021/07/25 09:29:20;;;;;;;11.75;8.43;;;32.40;43.10;;;;;;4995747;28;20477;-84
2021/07/25 09:31:45;;;;;;;8.90;8.00;;;32.50;43.30;;;;;;4996492;28;20026;-82
2021/07/25 09:34:11;;;;;;;9.45;7.93;;;32.50;43.20;;;;;;4996489;28;20034;-84
2021/07/25 09:36:39;;;;;;;12.73;7.70;;;32.40;42.80;;;;;;4998525;28;20045;-84
2021/07/25 09:39:05;;;;;;;11.32;8.70;;;32.40;42.80;;;;;;5009972;28;20017;-82
2021/07/25 09:41:32;;;;;;;11.48;8.77;;;32.50;42.60;;;;;;5012034;28;20038;-84
2021/07/25 09:44:10;;;;;;;9.60;8.45;;;32.70;42.10;;;;;;4998627;28;20026;-84
2021/07/25 09:46:49;;;;;;;8.95;8.05;;;32.80;41.30;;;;;;5010187;28;20407;-84
2021/07/25 09:49:15;;;;;;;15.30;8.48;;;32.80;41.00;;;;;;5014894;28;20018;-84
2021/07/25 09:51:41;;;;;;;9.82;8.00;;;32.80;41.30;;;;;;5009530;28;20042;-85
2021/07/25 09:54:07;;;;;;;11.68;8.38;;;33.00;41.60;;;;;;5012963;28;20026;-83
2021/07/25 09:56:33;;;;;;;13.55;8.95;;;33.20;41.80;;;;;;5012964;28;20030;-84
2021/07/25 09:58:59;;;;;;;11.13;9.38;;;33.30;41.50;;;;;;4995209;28;20350;-83
2021/07/25 10:01:35;;;;;;;12.98;8.93;;;33.30;41.00;;;;;;4977842;28;20109;-83
2021/07/25 10:04:17;;;;;;;12.02;8.10;;;33.30;40.50;;;;;;4995259;28;20703;-84
2021/07/25 10:06:44;;;;;;;10.50;8.43;;;33.10;40.20;;;;;;5008604;28;20065;-87
2021/07/25 10:09:15;;;;;;;13.65;9.10;;;33.00;40.60;;;;;;5008846;28;20021;-84
2021/07/25 10:12:01;;;;;;;;;;;33.00;41.10;;;;;;5009525;28;20490;-83
2021/07/25 10:14:29;;;;;;;14.48;9.95;;;33.10;41.00;;;;;;5015523;28;19910;-83
2021/07/25 10:16:57;;;;;;;12.55;11.23;;;33.10;40.70;;;;;;5015032;28;20026;-84
2021/07/25 10:19:36;;;;;;;16.52;10.18;;;33.00;40.90;;;;;;4995879;28;20392;-84
2021/07/25 10:22:07;;;;;;;12.20;10.57;;;32.90;41.20;;;;;;5014185;28;20044;-83
2021/07/25 10:24:34;;;;;;;12.55;9.93;;;32.90;40.90;;;;;;5014631;28;20085;-83
2021/07/25 10:27:01;;;;;;;23.65;11.70;;;32.90;41.00;;;;;;5014775;28;20022;-82
2021/07/25 10:29:29;;;;;;;14.85;11.98;;;32.70;41.20;;;;;;5014295;28;20057;-82
2021/07/25 10:31:56;;;;;;;16.00;11.75;;;32.70;41.40;;;;;;5013731;28;20029;-84
2021/07/25 10:34:22;;;;;;;15.05;11.75;;;32.70;41.20;;;;;;4996039;28;20379;-83
2021/07/25 10:36:52;;;;;;;13.73;11.23;;;32.80;41.40;;;;;;5012852;28;20417;-81
2021/07/25 10:39:19;;;;;;;12.75;10.48;;;32.90;41.10;;;;;;5012926;28;20018;-73
2021/07/25 10:41:47;;;;;;;14.57;10.15;;;32.90;40.90;;;;;;4994490;28;20030;-74
2021/07/25 10:44:16;;;;;;;18.55;10.18;;;32.80;40.50;;;;;;5012025;28;20061;-74
2021/07/25 10:46:42;;;;;;;15.73;11.25;;;32.70;41.50;;;;;;5012550;28;20026;-73
2021/07/25 10:49:11;;;;;;;16.98;11.70;;;32.60;40.70;;;;;;5012504;28;20083;-75
2021/07/25 10:51:55;;;;;;;22.45;14.05;;;32.30;40.70;;;;;;5012265;28;20057;-74
2021/07/25 10:54:23;;;;;;;19.02;12.63;;;32.20;40.70;;;;;;5012586;28;20076;-75
2021/07/25 10:57:00;;;;;;;17.88;12.90;;;32.20;40.90;;;;;;5012369;28;20144;-75
2021/07/25 10:59:38;;;;;;;11.98;10.65;;;32.10;40.90;;;;;;5012275;28;20021;-74
2021/07/25 11:02:05;;;;;;;11.20;8.75;;;32.20;41.00;;;;;;5012381;28;20087;-75
2021/07/25 11:04:56;;;;;;;11.43;8.95;;;32.20;40.80;;;;;;5012316;28;20435;-76
2021/07/25 11:07:24;;;;;;;11.52;9.02;;;32.20;40.60;;;;;;5012312;28;20048;-81
2021/07/25 11:10:10;;;;;;;15.02;9.65;;;32.10;41.00;;;;;;5012941;28;20530;-81
2021/07/25 11:12:47;;;;;;;13.45;9.80;;;32.10;41.10;;;;;;5012507;28;20028;-79
2021/07/25 11:15:31;;;;;;;12.13;9.93;;;32.10;41.00;;;;;;5012656;28;20021;-81
2021/07/25 11:18:11;;;;;;;13.95;9.50;;;32.20;40.50;;;;;;5012530;28;20029;-79
2021/07/25 11:20:51;;;;;;;16.77;9.73;;;32.10;40.70;;;;;;5012544;28;20026;-81
2021/07/25 11:23:19;;;;;;;11.18;8.90;;;32.20;40.80;;;;;;5012554;28;20041;-81
2021/07/25 11:25:46;;;;;;;13.88;10.38;;;32.20;40.80;;;;;;4994718;28;20033;-81
2021/07/25 11:28:39;;;;;;;12.77;9.45;;;32.00;40.30;;;;;;5011887;28;20094;-81
2021/07/25 11:31:06;;;;;;;18.15;13.20;;;31.80;40.70;;;;;;5014655;28;20030;-80
2021/07/25 11:33:38;;;;;;;12.77;8.57;;;31.80;41.00;;;;;;5014221;28;20441;-81
2021/07/25 11:36:09;;;;;;;11.32;8.90;;;31.80;41.10;;;;;;5015145;28;20033;-80
2021/07/25 11:38:36;;;;;;;14.67;9.67;;;31.90;41.10;;;;;;5011940;28;20026;-81
2021/07/25 11:41:02;;;;;;;11.00;8.07;;;31.70;41.20;;;;;;5011804;28;20036;-82
2021/07/25 11:43:47;;;;;;;14.10;9.65;;;31.60;41.80;;;;;;5012314;28;20030;-81
2021/07/25 11:46:34;;;;;;;13.13;8.45;;;31.50;41.40;;;;;;5012177;28;20673;-80
2021/07/25 11:49:17;;;;;;;13.50;8.35;;;31.40;41.60;;;;;;5011906;28;20026;-80
2021/07/25 11:51:59;;;;;;;12.93;9.27;;;31.40;41.60;;;;;;4994247;28;20046;-80
2021/07/25 11:54:41;;;;;;;9.50;8.38;;;31.60;41.70;;;;;;5012036;28;20104;-80
2021/07/25 11:57:21;;;;;;;9.45;7.90;;;31.60;41.30;;;;;;5012331;28;20025;-81
2021/07/25 11:59:54;;;;;;;15.32;7.85;;;31.40;40.80;;;;;;5012162;28;20034;-80
2021/07/25 12:02:31;;;;;;;9.18;7.60;;;31.20;41.00;;;;;;5012041;28;20092;-79
2021/07/25 12:04:58;;;;;;;8.50;7.40;;;31.00;41.30;;;;;;5011608;28;20113;-80
2021/07/25 12:07:35;;;;;;;8.15;7.18;;;31.00;41.30;;;;;;5011941;28;20519;-80
2021/07/25 12:10:03;;;;;;;10.20;7.47;;;31.00;41.00;;;;;;5012127;28;20057;-80
2021/07/25 12:12:30;;;;;;;9.82;7.80;;;30.90;41.00;;;;;;5011785;28;20137;-81
2021/07/25 12:15:00;;;;;;;9.23;7.10;;;30.80;41.50;;;;;;5012205;28;20486;-76
2021/07/25 12:17:50;;;;;;;11.02;8.43;;;30.80;41.50;;;;;;5011958;28;20026;-80
2021/07/25 12:20:19;;;;;;;8.63;7.55;;;30.80;41.80;;;;;;5011876;28;20026;-79
2021/07/25 12:22:48;;;;;;;10.77;7.50;;;31.00;41.70;;;;;;5011791;28;20052;-78
2021/07/25 12:25:14;;;;;;;11.80;8.88;;;31.10;41.50;;;;;;5011477;28;20026;-72
2021/07/25 12:27:40;;;;;;;11.23;8.85;;;31.00;40.90;;;;;;5011680;28;20033;-75
2021/07/25 12:30:14;;;;;;;9.45;7.45;;;31.00;41.10;;;;;;5011795;28;20084;-75
2021/07/25 12:32:40;;;;;;;12.57;8.82;;;31.00;41.20;;;;;;5011090;28;20018;-75
2021/07/25 12:35:09;;;;;;;12.60;8.80;;;31.00;41.30;;;;;;5011708;28;20429;-75
2021/07/25 12:37:52;;;;;;;13.48;8.70;;;31.00;41.40;;;;;;5011102;28;20534;-76